createdAt,value
2018-07-03T00:00:54.794Z,18.12
2018-07-03T00:05:47.889Z,18.06
2018-07-03T00:10:40.854Z,17.97
2018-07-03T00:15:33.872Z,17.90
2018-07-03T00:20:26.870Z,17.82
2018-07-03T00:25:19.945Z,17.77
2018-07-03T00:30:13.028Z,17.70
2018-07-03T00:35:06.069Z,17.59
2018-07-03T00:39:59.086Z,17.54
2018-07-03T00:44:52.073Z,17.49
2018-07-03T00:49:45.028Z,17.48
2018-07-03T00:54:38.030Z,17.47
2018-07-03T00:59:31.032Z,17.42
2018-07-03T01:04:24.013Z,17.34
2018-07-03T01:09:17.041Z,17.27
2018-07-03T01:14:10.093Z,17.24
2018-07-03T01:19:03.171Z,17.20
2018-07-03T01:23:56.178Z,17.14
2018-07-03T01:28:49.148Z,17.07
2018-07-03T01:33:42.172Z,16.99
2018-07-03T01:38:35.174Z,16.90
2018-07-03T01:43:28.207Z,16.85
2018-07-03T01:48:21.212Z,16.80
2018-07-03T01:53:14.247Z,16.71
2018-07-03T01:58:07.497Z,16.64
2018-07-03T02:03:00.463Z,16.54
2018-07-03T02:07:54.685Z,16.44
2018-07-03T02:12:47.707Z,16.41
2018-07-03T02:17:40.732Z,16.40
2018-07-03T02:22:33.728Z,16.30
2018-07-03T02:27:26.701Z,16.22
2018-07-03T02:32:19.733Z,16.17
2018-07-03T02:37:12.712Z,16.11
2018-07-03T02:42:05.837Z,16.01
2018-07-03T02:46:58.706Z,16.00
2018-07-03T02:51:51.717Z,15.96
2018-07-03T02:56:44.661Z,15.87
2018-07-03T03:01:37.623Z,15.82
2018-07-03T03:06:30.638Z,15.79
2018-07-03T03:11:23.835Z,15.79
2018-07-03T03:16:16.832Z,15.83
2018-07-03T03:21:09.911Z,15.87
2018-07-03T03:26:02.904Z,15.92
2018-07-03T03:30:55.881Z,15.96
2018-07-03T03:35:48.946Z,15.94
2018-07-03T03:40:41.887Z,15.91
2018-07-03T03:45:34.926Z,15.86
2018-07-03T03:50:27.948Z,15.87
2018-07-03T03:55:20.895Z,15.92
2018-07-03T04:00:13.868Z,15.94
2018-07-03T04:05:07.062Z,15.92
2018-07-03T04:10:00.009Z,15.87
2018-07-03T04:14:52.963Z,15.89
2018-07-03T04:19:46.008Z,15.87
2018-07-03T04:24:39.076Z,15.94
2018-07-03T04:29:32.016Z,16.00
2018-07-03T04:34:25.030Z,16.05
2018-07-03T04:39:18.030Z,16.12
2018-07-03T04:44:11.005Z,16.16
2018-07-03T04:49:04.087Z,16.22
2018-07-03T04:53:57.055Z,16.27
2018-07-03T04:58:50.003Z,16.34
2018-07-03T05:03:43.245Z,16.38
2018-07-03T05:08:36.200Z,16.41
2018-07-03T05:13:29.308Z,16.49
2018-07-03T05:18:22.483Z,16.55
2018-07-03T05:23:15.552Z,16.63
2018-07-03T05:28:08.495Z,16.70
2018-07-03T05:33:01.468Z,16.76
2018-07-03T05:37:54.617Z,16.85
2018-07-03T05:42:47.645Z,16.93
2018-07-03T05:47:40.665Z,17.00
2018-07-03T05:52:33.817Z,17.06
2018-07-03T05:57:27.054Z,17.13
2018-07-03T06:02:20.000Z,17.22
2018-07-03T06:07:12.973Z,17.30
2018-07-03T06:12:06.118Z,17.39
2018-07-03T06:16:59.334Z,17.45
2018-07-03T06:21:53.050Z,17.55
2018-07-03T06:26:46.074Z,17.64
2018-07-03T06:31:39.080Z,17.73
2018-07-03T06:36:32.011Z,17.79
2018-07-03T06:41:25.097Z,17.86
2018-07-03T06:46:18.064Z,17.94
2018-07-03T06:51:11.783Z,18.03
2018-07-03T06:56:05.327Z,18.12
2018-07-03T07:00:58.763Z,18.21
2018-07-03T07:05:52.453Z,18.32
2018-07-03T07:10:46.099Z,18.41
2018-07-03T07:15:39.405Z,18.49
2018-07-03T07:20:32.508Z,18.59
2018-07-03T07:25:25.999Z,18.77
2018-07-03T07:30:19.830Z,19.61
2018-07-03T07:35:13.128Z,22.00
2018-07-03T07:40:06.842Z,24.32
2018-07-03T07:45:00.591Z,25.98
2018-07-03T07:49:54.512Z,27.30
2018-07-03T07:54:48.050Z,28.18
2018-07-03T07:59:41.408Z,28.76
2018-07-03T08:04:35.058Z,29.06
2018-07-03T08:09:28.568Z,29.40
2018-07-03T08:14:21.662Z,29.61
2018-07-03T08:19:15.266Z,29.56
2018-07-03T08:24:08.405Z,29.34
2018-07-03T08:29:01.626Z,29.10
2018-07-03T08:33:55.133Z,28.78
2018-07-03T08:38:48.415Z,28.50
2018-07-03T08:43:41.605Z,28.08
2018-07-03T08:48:34.696Z,27.70
2018-07-03T08:53:27.884Z,27.36
2018-07-03T08:58:20.885Z,27.16
2018-07-03T09:03:13.815Z,27.14
2018-07-03T09:08:06.842Z,27.09
2018-07-03T09:13:00.014Z,27.01
2018-07-03T09:17:53.354Z,26.80
2018-07-03T09:22:46.233Z,26.74
2018-07-03T09:27:39.279Z,26.62
2018-07-03T09:32:32.392Z,26.37
2018-07-03T09:37:25.390Z,26.26
2018-07-03T09:42:18.360Z,26.34
2018-07-03T09:47:11.325Z,26.36
2018-07-03T09:52:04.327Z,26.41
2018-07-03T09:56:57.424Z,26.62
2018-07-03T10:01:50.421Z,26.65
2018-07-03T10:06:43.375Z,26.68
2018-07-03T10:11:36.396Z,26.71
2018-07-03T10:16:29.559Z,26.88
2018-07-03T10:21:22.744Z,27.05
2018-07-03T10:26:15.860Z,27.20
2018-07-03T10:31:09.038Z,27.30
2018-07-03T10:36:02.207Z,27.34
2018-07-03T10:40:55.310Z,27.45
2018-07-03T10:45:48.389Z,27.58
2018-07-03T10:50:41.363Z,27.65
2018-07-03T10:55:34.448Z,27.72
2018-07-03T11:00:27.457Z,27.84
2018-07-03T11:05:20.471Z,28.04
2018-07-03T11:10:13.444Z,28.06
2018-07-03T11:15:06.633Z,28.23
2018-07-03T11:19:59.632Z,28.39
2018-07-03T11:24:52.818Z,28.48
2018-07-03T11:29:45.826Z,28.58
2018-07-03T11:34:38.801Z,28.69
2018-07-03T11:39:31.819Z,28.91
2018-07-03T11:44:24.922Z,29.10
2018-07-03T11:49:18.007Z,29.18
2018-07-03T11:54:11.113Z,29.14
2018-07-03T11:59:04.158Z,29.30
2018-07-03T12:03:57.210Z,29.42
2018-07-03T12:08:50.171Z,29.60
2018-07-03T12:13:43.190Z,29.75
2018-07-03T12:18:41.748Z,29.84
2018-07-03T12:23:34.895Z,29.91
2018-07-03T12:28:27.778Z,30.00
2018-07-03T12:33:20.726Z,30.08
2018-07-03T12:38:13.744Z,30.23
2018-07-03T12:43:06.809Z,30.31
2018-07-03T12:47:59.976Z,30.23
2018-07-03T12:52:53.031Z,30.28
2018-07-03T12:57:46.125Z,30.35
2018-07-03T13:02:39.042Z,30.51
2018-07-03T13:07:32.200Z,30.50
2018-07-03T13:12:25.132Z,30.45
2018-07-03T13:17:18.092Z,30.46
2018-07-03T13:22:11.160Z,30.56
2018-07-03T13:27:04.277Z,30.66
2018-07-03T13:31:57.411Z,30.79
2018-07-03T13:36:50.315Z,30.93
2018-07-03T13:41:43.265Z,30.99
2018-07-03T13:46:36.417Z,30.97
2018-07-03T13:51:29.706Z,30.99
2018-07-03T13:56:22.620Z,31.02
2018-07-03T14:01:15.693Z,30.87
2018-07-03T14:06:08.750Z,30.92
2018-07-03T14:11:01.820Z,30.96
2018-07-03T14:15:54.868Z,31.05
2018-07-03T14:20:47.931Z,31.11
2018-07-03T14:25:40.977Z,31.12
2018-07-03T14:30:33.923Z,31.14
2018-07-03T14:35:26.847Z,31.15
2018-07-03T14:40:20.016Z,31.19
2018-07-03T14:45:13.133Z,31.22
2018-07-03T14:50:06.228Z,31.05
2018-07-03T14:54:59.237Z,31.03
2018-07-03T14:59:52.414Z,31.13
2018-07-03T15:04:45.408Z,31.12
2018-07-03T15:09:38.370Z,31.13
2018-07-03T15:14:31.263Z,31.10
2018-07-03T15:19:30.076Z,31.06
2018-07-03T15:24:23.090Z,31.02
2018-07-03T15:29:16.099Z,30.98
2018-07-03T15:34:09.870Z,30.97
2018-07-03T15:39:05.228Z,30.92
2018-07-03T15:44:15.368Z,30.79
2018-07-03T15:49:08.352Z,30.70
2018-07-03T15:54:01.295Z,30.67
2018-07-03T15:58:54.519Z,30.63
2018-07-03T16:05:11.427Z,30.55
2018-07-03T16:10:04.784Z,30.48
2018-07-03T16:14:57.747Z,30.47
2018-07-03T16:19:56.224Z,30.39
2018-07-03T16:24:49.314Z,30.33
2018-07-03T16:29:42.260Z,30.33
2018-07-03T16:34:35.329Z,30.27
2018-07-03T16:39:28.360Z,30.19
2018-07-03T16:44:21.389Z,30.11
2018-07-03T16:49:14.352Z,30.07
2018-07-03T16:54:07.475Z,30.00
2018-07-03T16:59:00.411Z,29.93
2018-07-03T17:03:53.373Z,29.86
2018-07-03T17:08:46.412Z,29.81
2018-07-03T17:13:39.460Z,29.75
2018-07-03T17:18:32.420Z,29.71
2018-07-03T17:23:25.405Z,29.65
2018-07-03T17:28:18.352Z,29.57
2018-07-03T17:33:11.348Z,29.52
2018-07-03T17:38:04.429Z,29.47
2018-07-03T17:44:16.652Z,29.40
2018-07-03T17:49:09.636Z,29.31
2018-07-03T17:54:02.620Z,29.22
2018-07-03T17:58:55.732Z,29.14
2018-07-03T18:03:48.834Z,29.03
2018-07-03T18:08:41.860Z,28.97
2018-07-03T18:13:35.018Z,28.90
2018-07-03T18:18:28.645Z,28.80
2018-07-03T18:23:21.680Z,28.72
2018-07-03T18:28:14.751Z,28.65
2018-07-03T18:33:07.743Z,28.59
2018-07-03T18:38:00.721Z,28.51
2018-07-03T18:42:53.697Z,28.44
2018-07-03T18:47:46.644Z,28.36
2018-07-03T18:52:39.649Z,28.25
2018-07-03T18:57:32.711Z,28.14
2018-07-03T19:02:25.730Z,28.05
2018-07-03T19:07:18.679Z,27.96
2018-07-03T19:12:11.720Z,27.89
2018-07-03T19:17:04.869Z,27.79
2018-07-03T19:21:57.759Z,27.68
2018-07-03T19:26:50.707Z,27.60
2018-07-03T19:31:43.728Z,27.51
2018-07-03T19:36:36.811Z,27.42
2018-07-03T19:41:29.687Z,27.33
2018-07-03T19:46:22.632Z,27.24
2018-07-03T19:51:15.639Z,27.14
2018-07-03T19:56:08.691Z,27.03
2018-07-03T20:01:01.689Z,26.95
2018-07-03T20:05:54.708Z,26.84
2018-07-03T20:10:47.684Z,26.76
2018-07-03T20:15:40.739Z,26.66
2018-07-03T20:20:33.776Z,26.56
2018-07-03T20:25:26.741Z,26.47
2018-07-03T20:30:20.165Z,26.39
2018-07-03T20:35:13.207Z,26.27
2018-07-03T20:40:06.256Z,26.17
2018-07-03T20:44:59.188Z,26.05
2018-07-03T20:49:52.124Z,25.92
2018-07-03T20:54:45.080Z,25.82
2018-07-03T20:59:38.034Z,25.75
2018-07-03T21:04:31.078Z,25.67
2018-07-03T21:09:24.064Z,25.60
2018-07-03T21:14:16.975Z,25.52
2018-07-03T21:19:10.019Z,25.42
2018-07-03T21:24:03.107Z,25.39
2018-07-03T21:28:56.057Z,25.32
2018-07-03T21:33:48.965Z,25.32
2018-07-03T21:38:42.067Z,25.28
2018-07-03T21:43:35.084Z,25.22
2018-07-03T21:48:27.982Z,25.16
2018-07-03T21:53:21.011Z,25.08
2018-07-03T21:58:13.988Z,24.93
2018-07-03T22:03:08.987Z,24.85
2018-07-03T22:08:02.187Z,24.74
2018-07-03T22:12:55.223Z,24.62
2018-07-03T22:17:48.128Z,24.57
2018-07-03T22:22:41.116Z,24.51
2018-07-03T22:27:34.166Z,24.32
2018-07-03T22:32:27.132Z,24.23
2018-07-03T22:37:20.935Z,24.13
2018-07-03T22:42:13.826Z,23.96
2018-07-03T22:47:06.776Z,23.83
2018-07-03T22:51:59.761Z,23.73
2018-07-03T22:56:52.896Z,23.58
2018-07-03T23:01:45.874Z,23.53
2018-07-03T23:06:38.879Z,23.42
2018-07-03T23:11:31.821Z,23.36
2018-07-03T23:16:24.796Z,23.31
2018-07-03T23:21:17.819Z,23.27
2018-07-03T23:26:10.775Z,23.18
2018-07-03T23:31:03.757Z,23.06
2018-07-03T23:35:56.729Z,23.11
2018-07-03T23:40:49.626Z,23.13
2018-07-03T23:45:50.538Z,23.10
2018-07-03T23:51:00.472Z,23.08
2018-07-03T23:56:10.646Z,23.03
